Time,TemperatureF,DewpointF,PressureIn,WindDirection,WindDirectionDegrees,WindSpeedMPH,WindSpeedGustMPH,Humidity,HourlyPrecipIn,Conditions,Clouds,dailyrainin,SoftwareType,DateUTC
2013-06-16 00:01:00,59.7,45.0,29.29,West,270,2.0,6.0,59,0.00,,,0.00,Rainwise IP-100,2013-06-16 04:01:00,
2013-06-16 00:06:00,59.5,46.0,29.29,West,270,1.0,6.0,60,0.00,,,0.00,Rainwise IP-100,2013-06-16 04:06:00,
2013-06-16 00:11:00,59.4,45.0,29.29,WSW,247,1.0,6.0,59,0.00,,,0.00,Rainwise IP-100,2013-06-16 04:11:00,
2013-06-16 00:16:00,59.0,45.0,29.29,WSW,247,0.0,4.0,60,0.00,,,0.00,Rainwise IP-100,2013-06-16 04:16:00,
2013-06-16 00:21:00,58.4,45.0,29.30,WSW,247,0.0,1.0,61,0.00,,,0.00,Rainwise IP-100,2013-06-16 04:21:00,
2013-06-16 00:26:00,57.8,46.0,29.29,ESE,112,2.0,4.0,63,0.00,,,0.00,Rainwise IP-100,2013-06-16 04:26:00,
2013-06-16 00:31:00,57.3,46.0,29.29,ESE,112,2.0,4.0,65,0.00,,,0.00,Rainwise IP-100,2013-06-16 04:31:00,
2013-06-16 00:37:00,56.4,46.0,29.29,ESE,112,0.0,3.0,68,0.00,,,0.00,Rainwise IP-100,2013-06-16 04:37:00,
2013-06-16 00:42:00,55.4,45.0,29.29,NW,315,0.0,2.0,69,0.00,,,0.00,Rainwise IP-100,2013-06-16 04:42:00,
2013-06-16 00:47:00,54.5,47.0,29.28,NW,315,1.0,3.0,75,0.00,,,0.00,Rainwise IP-100,2013-06-16 04:47:00,
2013-06-16 00:52:00,53.8,46.0,29.28,NW,315,0.0,3.0,74,0.00,,,0.00,Rainwise IP-100,2013-06-16 04:52:00,
2013-06-16 00:57:00,53.3,46.0,29.28,NW,315,0.0,2.0,75,0.00,,,0.00,Rainwise IP-100,2013-06-16 04:57:00,
2013-06-16 01:02:00,52.9,45.0,29.28,NW,315,0.0,0.0,74,0.00,,,0.00,Rainwise IP-100,2013-06-16 05:02:00,
2013-06-16 01:07:00,54.0,47.0,29.28,ESE,112,1.0,7.0,76,0.00,,,0.00,Rainwise IP-100,2013-06-16 05:07:00,
2013-06-16 01:13:00,54.2,47.0,29.28,South,180,0.0,4.0,75,0.00,,,0.00,Rainwise IP-100,2013-06-16 05:13:00,
2013-06-16 01:18:00,53.8,47.5,29.28,South,180,0.0,0.0,78,0.00,,,0.00,Rainwise IP-100,2013-06-16 05:18:00,
2013-06-16 01:23:00,53.2,46.0,29.28,NW,315,0.0,4.0,77,0.00,,,0.00,Rainwise IP-100,2013-06-16 05:23:00,
2013-06-16 01:28:00,52.3,46.0,29.28,NW,315,0.0,3.0,80,0.00,,,0.00,Rainwise IP-100,2013-06-16 05:28:00,
2013-06-16 01:33:00,51.9,47.0,29.28,SW,225,0.0,4.0,82,0.00,,,0.00,Rainwise IP-100,2013-06-16 05:33:00,
2013-06-16 01:38:00,51.5,47.0,29.28,SW,225,0.0,2.0,83,0.00,,,0.00,Rainwise IP-100,2013-06-16 05:38:00,
2013-06-16 01:43:00,51.1,46.0,29.28,WSW,247,0.0,4.0,82,0.00,,,0.00,Rainwise IP-100,2013-06-16 05:43:00,
2013-06-16 01:48:00,51.2,46.0,29.28,WSW,247,0.0,3.0,82,0.00,,,0.00,Rainwise IP-100,2013-06-16 05:48:00,
2013-06-16 01:52:00,51.3,46.0,29.28,WSW,247,0.0,0.0,81,0.00,,,0.00,Rainwise IP-100,2013-06-16 05:52:00,
2013-06-16 01:57:00,50.8,47.0,29.28,WNW,292,0.0,3.0,84,0.00,,,0.00,Rainwise IP-100,2013-06-16 05:57:00,
2013-06-16 02:02:00,50.5,46.0,29.28,WNW,292,0.0,3.0,85,0.00,,,0.00,Rainwise IP-100,2013-06-16 06:02:00,
2013-06-16 02:07:00,50.3,47.0,29.28,WNW,292,2.0,4.0,87,0.00,,,0.00,Rainwise IP-100,2013-06-16 06:07:00,
2013-06-16 02:12:00,50.2,46.0,29.28,East,90,2.0,3.0,86,0.00,,,0.00,Rainwise IP-100,2013-06-16 06:12:00,
2013-06-16 02:18:00,50.8,47.5,29.28,ENE,67,0.0,4.0,87,0.00,,,0.00,Rainwise IP-100,2013-06-16 06:18:00,
2013-06-16 02:23:00,51.0,47.5,29.28,NNE,22,0.0,1.0,86,0.00,,,0.00,Rainwise IP-100,2013-06-16 06:23:00,
2013-06-16 02:28:00,50.7,47.5,29.28,NW,315,0.0,3.0,88,0.00,,,0.00,Rainwise IP-100,2013-06-16 06:28:00,
2013-06-16 02:33:00,50.1,46.0,29.28,NW,315,0.0,2.0,87,0.00,,,0.00,Rainwise IP-100,2013-06-16 06:33:00,
2013-06-16 02:38:00,49.7,47.0,29.27,NE,45,0.0,2.0,88,0.00,,,0.00,Rainwise IP-100,2013-06-16 06:38:00,
2013-06-16 02:43:00,49.6,47.0,29.27,NNW,337,0.0,2.0,90,0.00,,,0.00,Rainwise IP-100,2013-06-16 06:43:00,
2013-06-16 02:48:00,49.5,47.5,29.27,NNW,337,0.0,2.0,92,0.00,,,0.00,Rainwise IP-100,2013-06-16 06:48:00,
2013-06-16 02:54:00,49.6,47.5,29.27,NNW,337,0.0,2.0,92,0.00,,,0.00,Rainwise IP-100,2013-06-16 06:54:00,
2013-06-16 02:59:00,49.7,47.5,29.27,NNW,337,0.0,0.0,91,0.00,,,0.00,Rainwise IP-100,2013-06-16 06:59:00,
2013-06-16 03:04:00,49.8,47.5,29.27,NNW,337,0.0,0.0,91,0.00,,,0.00,Rainwise IP-100,2013-06-16 07:04:00,
2013-06-16 03:09:00,50.3,48.0,29.28,NNW,337,0.0,2.0,92,0.00,,,0.00,Rainwise IP-100,2013-06-16 07:09:00,
2013-06-16 03:14:00,50.3,48.0,29.28,NNW,337,0.0,1.0,91,0.00,,,0.00,Rainwise IP-100,2013-06-16 07:14:00,
2013-06-16 03:19:00,50.2,47.5,29.28,NNW,337,0.0,2.0,92,0.00,,,0.00,Rainwise IP-100,2013-06-16 07:19:00,
2013-06-16 03:24:00,49.8,47.5,29.27,NNW,337,0.0,1.0,93,0.00,,,0.00,Rainwise IP-100,2013-06-16 07:24:00,
2013-06-16 03:29:00,49.5,47.5,29.27,NNW,337,0.0,0.0,92,0.00,,,0.00,Rainwise IP-100,2013-06-16 07:29:00,
2013-06-16 03:35:00,49.1,47.0,29.27,NNW,337,3.0,3.0,92,0.00,,,0.00,Rainwise IP-100,2013-06-16 07:35:00,
2013-06-16 03:40:00,48.7,47.0,29.27,NNW,337,0.0,4.0,92,0.00,,,0.00,Rainwise IP-100,2013-06-16 07:40:00,
2013-06-16 03:45:00,48.2,47.0,29.27,NNW,337,0.0,2.0,93,0.00,,,0.00,Rainwise IP-100,2013-06-16 07:45:00,
2013-06-16 03:50:00,47.8,46.0,29.27,NNW,337,0.0,1.0,92,0.00,,,0.00,Rainwise IP-100,2013-06-16 07:50:00,
2013-06-16 03:55:00,47.5,46.0,29.27,NNW,337,0.0,4.0,94,0.00,,,0.00,Rainwise IP-100,2013-06-16 07:55:00,
2013-06-16 04:00:00,47.2,45.0,29.26,NNW,337,0.0,3.0,94,0.00,,,0.00,Rainwise IP-100,2013-06-16 08:00:00,
2013-06-16 04:05:00,47.1,45.0,29.26,NW,315,0.0,3.0,95,0.00,,,0.00,Rainwise IP-100,2013-06-16 08:05:00,
2013-06-16 04:11:00,46.9,45.0,29.26,NW,315,0.0,4.0,95,0.00,,,0.00,Rainwise IP-100,2013-06-16 08:11:00,
2013-06-16 04:16:00,46.8,45.0,29.26,NW,315,0.0,0.0,94,0.00,,,0.00,Rainwise IP-100,2013-06-16 08:16:00,
2013-06-16 04:21:00,46.7,45.0,29.26,NW,315,3.0,4.0,95,0.00,,,0.00,Rainwise IP-100,2013-06-16 08:21:00,
2013-06-16 04:26:00,46.7,46.0,29.26,NW,315,0.0,4.0,96,0.00,,,0.00,Rainwise IP-100,2013-06-16 08:26:00,
2013-06-16 04:31:00,46.8,46.0,29.26,NW,315,0.0,2.0,96,0.00,,,0.00,Rainwise IP-100,2013-06-16 08:31:00,
2013-06-16 04:36:00,47.5,47.0,29.26,NW,315,2.0,3.0,96,0.00,,,0.00,Rainwise IP-100,2013-06-16 08:36:00,
2013-06-16 04:41:00,48.0,47.5,29.26,NW,315,2.0,4.0,96,0.00,,,0.00,Rainwise IP-100,2013-06-16 08:41:00,
2013-06-16 04:46:00,48.6,48.0,29.26,NW,315,0.0,4.0,96,0.00,,,0.00,Rainwise IP-100,2013-06-16 08:46:00,
2013-06-16 04:52:00,48.9,48.0,29.26,SW,225,3.0,3.0,96,0.00,,,0.00,Rainwise IP-100,2013-06-16 08:52:00,
2013-06-16 04:57:00,49.3,47.5,29.26,SW,225,0.0,4.0,95,0.00,,,0.00,Rainwise IP-100,2013-06-16 08:57:00,
2013-06-16 05:02:00,49.5,48.0,29.26,SW,225,0.0,3.0,95,0.00,,,0.00,Rainwise IP-100,2013-06-16 09:02:00,
2013-06-16 05:07:00,49.5,48.0,29.26,SW,225,0.0,0.0,94,0.00,,,0.00,Rainwise IP-100,2013-06-16 09:07:00,
2013-06-16 05:12:00,49.7,48.0,29.26,SW,225,0.0,1.0,94,0.00,,,0.00,Rainwise IP-100,2013-06-16 09:12:00,
2013-06-16 05:17:00,49.6,47.5,29.26,SW,225,0.0,0.0,93,0.00,,,0.00,Rainwise IP-100,2013-06-16 09:17:00,
2013-06-16 05:22:00,49.6,47.5,29.27,SW,225,0.0,0.0,93,0.00,,,0.00,Rainwise IP-100,2013-06-16 09:22:00,
2013-06-16 05:28:00,49.8,47.5,29.27,SSE,157,2.0,3.0,93,0.00,,,0.00,Rainwise IP-100,2013-06-16 09:28:00,
2013-06-16 05:33:00,50.1,47.5,29.27,SSE,157,0.0,2.0,93,0.00,,,0.00,Rainwise IP-100,2013-06-16 09:33:00,
2013-06-16 05:38:00,50.2,47.5,29.27,SSE,157,0.0,0.0,93,0.00,,,0.00,Rainwise IP-100,2013-06-16 09:38:00,
2013-06-16 05:43:00,50.2,47.5,29.27,SSE,157,0.0,0.0,93,0.00,,,0.00,Rainwise IP-100,2013-06-16 09:43:00,
2013-06-16 05:48:00,50.2,47.5,29.27,SSE,157,0.0,0.0,93,0.00,,,0.00,Rainwise IP-100,2013-06-16 09:48:00,
2013-06-16 05:53:00,50.2,47.5,29.27,SSE,157,0.0,0.0,93,0.00,,,0.00,Rainwise IP-100,2013-06-16 09:53:00,
2013-06-16 05:58:00,50.3,48.0,29.27,SSE,157,0.0,0.0,93,0.00,,,0.00,Rainwise IP-100,2013-06-16 09:58:00,
2013-06-16 06:03:00,50.6,48.0,29.28,SSE,157,0.0,0.0,93,0.00,,,0.00,Rainwise IP-100,2013-06-16 10:03:00,
2013-06-16 06:09:00,51.3,49.0,29.27,SSE,157,0.0,0.0,92,0.00,,,0.00,Rainwise IP-100,2013-06-16 10:09:00,
2013-06-16 06:14:00,51.7,50.0,29.27,SSE,157,0.0,0.0,92,0.00,,,0.00,Rainwise IP-100,2013-06-16 10:14:00,
2013-06-16 06:19:00,52.0,50.0,29.28,SSE,157,0.0,0.0,92,0.00,,,0.00,Rainwise IP-100,2013-06-16 10:19:00,
2013-06-16 06:24:00,52.4,50.0,29.28,South,180,0.0,2.0,92,0.00,,,0.00,Rainwise IP-100,2013-06-16 10:24:00,
2013-06-16 06:29:00,52.9,50.0,29.28,ENE,67,3.0,3.0,91,0.00,,,0.00,Rainwise IP-100,2013-06-16 10:29:00,
2013-06-16 06:34:00,53.5,50.5,29.28,East,90,0.0,5.0,91,0.00,,,0.00,Rainwise IP-100,2013-06-16 10:34:00,
2013-06-16 06:39:00,54.2,51.0,29.28,East,90,0.0,0.0,91,0.00,,,0.00,Rainwise IP-100,2013-06-16 10:39:00,
2013-06-16 06:45:00,54.3,51.0,29.28,ENE,67,2.0,4.0,89,0.00,,,0.00,Rainwise IP-100,2013-06-16 10:45:00,
2013-06-16 06:50:00,54.1,50.5,29.28,ENE,67,2.0,4.0,89,0.00,,,0.00,Rainwise IP-100,2013-06-16 10:50:00,
2013-06-16 06:55:00,53.9,50.5,29.28,ENE,67,0.0,3.0,89,0.00,,,0.00,Rainwise IP-100,2013-06-16 10:55:00,
2013-06-16 07:00:00,53.9,50.5,29.28,ENE,67,1.0,2.0,89,0.00,,,0.00,Rainwise IP-100,2013-06-16 11:00:00,
2013-06-16 07:05:00,53.9,50.5,29.29,NNE,22,2.0,3.0,89,0.00,,,0.00,Rainwise IP-100,2013-06-16 11:05:00,
2013-06-16 07:10:00,54.1,51.0,29.29,NNE,22,0.0,3.0,90,0.00,,,0.00,Rainwise IP-100,2013-06-16 11:10:00,
2013-06-16 07:15:00,54.2,51.0,29.29,NNE,22,0.0,0.0,90,0.00,,,0.00,Rainwise IP-100,2013-06-16 11:15:00,
2013-06-16 07:20:00,54.8,52.0,29.29,NNE,22,1.0,2.0,89,0.00,,,0.00,Rainwise IP-100,2013-06-16 11:20:00,
2013-06-16 07:26:00,55.7,53.0,29.29,NNE,22,0.0,2.0,88,0.00,,,0.00,Rainwise IP-100,2013-06-16 11:26:00,
2013-06-16 07:31:00,56.3,53.0,29.29,ENE,67,1.0,4.0,86,0.00,,,0.00,Rainwise IP-100,2013-06-16 11:31:00,
2013-06-16 07:36:00,56.9,53.5,29.29,ENE,67,0.0,2.0,87,0.00,,,0.00,Rainwise IP-100,2013-06-16 11:36:00,
2013-06-16 07:41:00,57.8,53.5,29.29,ENE,67,2.0,3.0,84,0.00,,,0.00,Rainwise IP-100,2013-06-16 11:41:00,
2013-06-16 07:46:00,57.7,53.0,29.29,ENE,67,3.0,6.0,83,0.00,,,0.00,Rainwise IP-100,2013-06-16 11:46:00,
2013-06-16 07:51:00,57.3,53.0,29.29,ENE,67,4.0,5.0,84,0.00,,,0.00,Rainwise IP-100,2013-06-16 11:51:00,
2013-06-16 07:56:00,57.2,52.0,29.29,ENE,67,2.0,5.0,84,0.00,,,0.00,Rainwise IP-100,2013-06-16 11:56:00,
2013-06-16 08:02:00,57.3,53.0,29.28,East,90,2.0,3.0,84,0.00,,,0.00,Rainwise IP-100,2013-06-16 12:02:00,
2013-06-16 08:07:00,57.5,53.0,29.28,ESE,112,0.0,4.0,83,0.00,,,0.00,Rainwise IP-100,2013-06-16 12:07:00,
2013-06-16 08:12:00,57.3,53.0,29.28,East,90,1.0,4.0,83,0.00,,,0.00,Rainwise IP-100,2013-06-16 12:12:00,
2013-06-16 08:17:00,57.3,53.0,29.28,East,90,0.0,3.0,83,0.00,,,0.00,Rainwise IP-100,2013-06-16 12:17:00,
2013-06-16 08:22:00,57.6,53.0,29.28,East,90,0.0,3.0,84,0.00,,,0.00,Rainwise IP-100,2013-06-16 12:22:00,
2013-06-16 08:27:00,57.9,53.5,29.28,East,90,0.0,3.0,84,0.00,,,0.00,Rainwise IP-100,2013-06-16 12:27:00,
2013-06-16 08:32:00,58.2,53.5,29.29,SE,135,2.0,4.0,83,0.00,,,0.00,Rainwise IP-100,2013-06-16 12:32:00,
2013-06-16 08:37:00,58.4,53.5,29.29,SE,135,0.0,4.0,83,0.00,,,0.00,Rainwise IP-100,2013-06-16 12:37:00,
2013-06-16 08:43:00,58.8,54.0,29.28,ENE,67,1.0,2.0,84,0.00,,,0.00,Rainwise IP-100,2013-06-16 12:43:00,
2013-06-16 08:48:00,58.6,54.0,29.28,NE,45,2.0,5.0,84,0.00,,,0.00,Rainwise IP-100,2013-06-16 12:48:00,
2013-06-16 08:53:00,58.4,53.5,29.28,NE,45,1.0,4.0,84,0.00,,,0.00,Rainwise IP-100,2013-06-16 12:53:00,
2013-06-16 08:58:00,58.7,54.5,29.28,NE,45,0.0,2.0,85,0.00,,,0.00,Rainwise IP-100,2013-06-16 12:58:00,
2013-06-16 09:03:00,59.4,54.5,29.28,NE,45,0.0,2.0,84,0.00,,,0.00,Rainwise IP-100,2013-06-16 13:03:00,
2013-06-16 09:08:00,60.6,56.0,29.28,WSW,247,3.0,3.0,84,0.00,,,0.00,Rainwise IP-100,2013-06-16 13:08:00,
2013-06-16 09:13:00,62.1,56.0,29.28,SW,225,0.0,5.0,80,0.00,,,0.00,Rainwise IP-100,2013-06-16 13:13:00,
2013-06-16 09:19:00,62.9,56.0,29.27,SE,135,1.0,6.0,77,0.00,,,0.00,Rainwise IP-100,2013-06-16 13:19:00,
2013-06-16 09:24:00,63.5,56.0,29.28,South,180,0.0,3.0,76,0.00,,,0.00,Rainwise IP-100,2013-06-16 13:24:00,
2013-06-16 09:29:00,63.8,56.0,29.28,South,180,0.0,3.0,75,0.00,,,0.00,Rainwise IP-100,2013-06-16 13:29:00,
2013-06-16 09:34:00,64.1,55.0,29.28,East,90,2.0,5.0,73,0.00,,,0.00,Rainwise IP-100,2013-06-16 13:34:00,
2013-06-16 09:39:00,64.4,54.5,29.27,WSW,247,5.0,5.0,70,0.00,,,0.00,Rainwise IP-100,2013-06-16 13:39:00,
2013-06-16 09:44:00,65.2,56.0,29.27,SE,135,0.0,6.0,72,0.00,,,0.00,Rainwise IP-100,2013-06-16 13:44:00,
2013-06-16 09:49:00,65.9,55.0,29.27,East,90,3.0,6.0,69,0.00,,,0.00,Rainwise IP-100,2013-06-16 13:49:00,
2013-06-16 09:54:00,65.7,54.5,29.27,East,90,2.0,7.0,69,0.00,,,0.00,Rainwise IP-100,2013-06-16 13:54:00,
2013-06-16 10:00:00,64.9,55.0,29.27,East,90,1.0,7.0,71,0.00,,,0.00,Rainwise IP-100,2013-06-16 14:00:00,
2013-06-16 10:05:00,64.9,54.5,29.27,ENE,67,4.0,6.0,69,0.00,,,0.00,Rainwise IP-100,2013-06-16 14:05:00,
2013-06-16 10:10:00,64.7,54.5,29.27,NE,45,5.0,6.0,70,0.00,,,0.00,Rainwise IP-100,2013-06-16 14:10:00,
2013-06-16 10:15:00,65.0,54.5,29.27,East,90,6.0,6.0,70,0.00,,,0.00,Rainwise IP-100,2013-06-16 14:15:00,
2013-06-16 10:20:00,65.5,54.5,29.27,ENE,67,3.0,6.0,69,0.00,,,0.00,Rainwise IP-100,2013-06-16 14:20:00,
2013-06-16 10:25:00,65.9,56.0,29.27,East,90,1.0,4.0,70,0.00,,,0.00,Rainwise IP-100,2013-06-16 14:25:00,
2013-06-16 10:30:00,66.3,56.0,29.27,ENE,67,4.0,5.0,69,0.00,,,0.00,Rainwise IP-100,2013-06-16 14:30:00,
2013-06-16 10:36:00,66.6,54.5,29.26,East,90,2.0,6.0,65,0.00,,,0.00,Rainwise IP-100,2013-06-16 14:36:00,
2013-06-16 10:41:00,66.9,56.0,29.26,East,90,3.0,5.0,67,0.00,,,0.00,Rainwise IP-100,2013-06-16 14:41:00,
2013-06-16 10:46:00,67.3,56.5,29.26,NE,45,3.0,5.0,68,0.00,,,0.00,Rainwise IP-100,2013-06-16 14:46:00,
2013-06-16 10:51:00,68.0,58.0,29.25,South,180,3.0,4.0,71,0.00,,,0.00,Rainwise IP-100,2013-06-16 14:51:00,
2013-06-16 10:56:00,68.8,57.5,29.25,SE,135,0.0,4.0,68,0.00,,,0.00,Rainwise IP-100,2013-06-16 14:56:00,
2013-06-16 11:01:00,68.9,57.5,29.25,ENE,67,3.0,4.0,67,0.00,,,0.00,Rainwise IP-100,2013-06-16 15:01:00,
2013-06-16 11:06:00,68.4,57.5,29.25,East,90,2.0,5.0,68,0.00,,,0.00,Rainwise IP-100,2013-06-16 15:06:00,
2013-06-16 11:11:00,68.0,57.5,29.25,East,90,0.0,6.0,69,0.00,,,0.00,Rainwise IP-100,2013-06-16 15:11:00,
2013-06-16 11:17:00,68.1,57.5,29.25,SE,135,2.0,3.0,70,0.00,,,0.00,Rainwise IP-100,2013-06-16 15:17:00,
2013-06-16 11:22:00,68.3,57.5,29.25,ENE,67,0.0,4.0,68,0.00,,,0.00,Rainwise IP-100,2013-06-16 15:22:00,
2013-06-16 11:27:00,68.4,58.0,29.24,ESE,112,2.0,3.0,70,0.00,,,0.00,Rainwise IP-100,2013-06-16 15:27:00,
2013-06-16 11:32:00,68.4,57.5,29.24,West,270,0.0,6.0,69,0.00,,,0.00,Rainwise IP-100,2013-06-16 15:32:00,
2013-06-16 11:37:00,68.6,58.0,29.24,SW,225,1.0,4.0,70,0.00,,,0.00,Rainwise IP-100,2013-06-16 15:37:00,
2013-06-16 11:42:00,68.8,59.0,29.23,WSW,247,1.0,4.0,70,0.00,,,0.00,Rainwise IP-100,2013-06-16 15:42:00,
2013-06-16 11:47:00,69.2,59.0,29.23,South,180,3.0,3.0,70,0.00,,,0.00,Rainwise IP-100,2013-06-16 15:47:00,
2013-06-16 11:53:00,69.6,59.0,29.23,NNE,22,2.0,6.0,68,0.00,,,0.00,Rainwise IP-100,2013-06-16 15:53:00,
2013-06-16 11:58:00,69.7,57.0,29.23,SW,225,2.0,6.0,65,0.00,,,0.00,Rainwise IP-100,2013-06-16 15:58:00,
2013-06-16 12:03:00,69.7,59.0,29.23,SSE,157,0.0,6.0,69,0.00,,,0.00,Rainwise IP-100,2013-06-16 16:03:00,
2013-06-16 12:08:00,69.8,59.0,29.23,SSE,157,2.0,4.0,69,0.00,,,0.00,Rainwise IP-100,2013-06-16 16:08:00,
2013-06-16 12:13:00,69.1,57.0,29.23,SSE,157,1.0,8.0,66,0.00,,,0.00,Rainwise IP-100,2013-06-16 16:13:00,
2013-06-16 12:18:00,68.7,56.5,29.23,SSE,157,3.0,6.0,65,0.00,,,0.00,Rainwise IP-100,2013-06-16 16:18:00,
2013-06-16 12:23:00,68.6,57.0,29.22,South,180,3.0,5.0,67,0.00,,,0.00,Rainwise IP-100,2013-06-16 16:23:00,
2013-06-16 12:28:00,68.2,56.5,29.22,WSW,247,4.0,7.0,66,0.00,,,0.00,Rainwise IP-100,2013-06-16 16:28:00,
2013-06-16 12:34:00,67.6,56.5,29.22,West,270,6.0,6.0,68,0.00,,,0.00,Rainwise IP-100,2013-06-16 16:34:00,
2013-06-16 12:39:00,67.2,56.5,29.22,SSW,202,1.0,7.0,68,0.00,,,0.00,Rainwise IP-100,2013-06-16 16:39:00,
2013-06-16 12:44:00,67.2,56.5,29.21,SSE,157,0.0,6.0,69,0.00,,,0.00,Rainwise IP-100,2013-06-16 16:44:00,
2013-06-16 12:49:00,67.3,57.5,29.21,ESE,112,2.0,6.0,71,0.00,,,0.00,Rainwise IP-100,2013-06-16 16:49:00,
2013-06-16 12:54:00,67.6,57.5,29.21,ENE,67,0.0,4.0,71,0.00,,,0.00,Rainwise IP-100,2013-06-16 16:54:00,
2013-06-16 12:59:00,67.7,57.5,29.21,SSE,157,1.0,7.0,70,0.00,,,0.00,Rainwise IP-100,2013-06-16 16:59:00,
2013-06-16 13:04:00,67.8,57.5,29.20,SW,225,1.0,6.0,70,0.00,,,0.00,Rainwise IP-100,2013-06-16 17:04:00,
2013-06-16 13:09:00,67.8,58.0,29.20,SW,225,4.0,8.0,71,0.00,,,0.00,Rainwise IP-100,2013-06-16 17:09:00,
2013-06-16 13:15:00,67.4,58.0,29.20,South,180,4.0,8.0,72,0.00,,,0.00,Rainwise IP-100,2013-06-16 17:15:00,
2013-06-16 13:20:00,67.4,57.5,29.20,SSE,157,3.0,5.0,71,0.00,,,0.00,Rainwise IP-100,2013-06-16 17:20:00,
2013-06-16 13:25:00,67.6,59.0,29.19,WNW,292,0.0,5.0,73,0.00,,,0.00,Rainwise IP-100,2013-06-16 17:25:00,
2013-06-16 13:30:00,67.9,59.0,29.19,WSW,247,2.0,6.0,73,0.00,,,0.00,Rainwise IP-100,2013-06-16 17:30:00,
2013-06-16 13:35:00,68.1,59.5,29.19,East,90,1.0,7.0,74,0.00,,,0.00,Rainwise IP-100,2013-06-16 17:35:00,
2013-06-16 13:40:00,68.6,59.5,29.19,WSW,247,6.0,6.0,73,0.00,,,0.00,Rainwise IP-100,2013-06-16 17:40:00,
2013-06-16 13:45:00,68.8,59.0,29.19,South,180,3.0,6.0,71,0.00,,,0.00,Rainwise IP-100,2013-06-16 17:45:00,
2013-06-16 13:51:00,68.6,59.0,29.18,South,180,0.0,9.0,71,0.00,,,0.00,Rainwise IP-100,2013-06-16 17:51:00,
2013-06-16 13:56:00,68.3,59.0,29.18,SE,135,1.0,9.0,72,0.00,,,0.00,Rainwise IP-100,2013-06-16 17:56:00,
2013-06-16 14:01:00,68.1,59.0,29.17,SSE,157,0.0,6.0,73,0.00,,,0.00,Rainwise IP-100,2013-06-16 18:01:00,
2013-06-16 14:06:00,67.9,59.0,29.17,NW,315,2.0,6.0,73,0.00,,,0.00,Rainwise IP-100,2013-06-16 18:06:00,
2013-06-16 14:11:00,67.9,59.5,29.17,WSW,247,5.0,5.0,74,0.00,,,0.00,Rainwise IP-100,2013-06-16 18:11:00,
2013-06-16 14:16:00,67.9,60.0,29.16,SE,135,0.0,6.0,75,0.00,,,0.00,Rainwise IP-100,2013-06-16 18:16:00,
2013-06-16 14:21:00,68.3,59.5,29.16,SSW,202,1.0,6.0,73,0.00,,,0.00,Rainwise IP-100,2013-06-16 18:21:00,
2013-06-16 14:26:00,68.7,59.5,29.16,South,180,0.0,4.0,73,0.00,,,0.00,Rainwise IP-100,2013-06-16 18:26:00,
2013-06-16 14:32:00,68.6,59.0,29.15,South,180,2.0,10.0,72,0.00,,,0.00,Rainwise IP-100,2013-06-16 18:32:00,
2013-06-16 14:37:00,68.2,59.0,29.15,WSW,247,4.0,9.0,73,0.00,,,0.00,Rainwise IP-100,2013-06-16 18:37:00,
2013-06-16 14:42:00,68.4,59.0,29.15,South,180,2.0,9.0,71,0.00,,,0.00,Rainwise IP-100,2013-06-16 18:42:00,
2013-06-16 14:47:00,68.4,59.0,29.15,South,180,3.0,9.0,71,0.00,,,0.00,Rainwise IP-100,2013-06-16 18:47:00,
2013-06-16 14:52:00,68.3,59.0,29.14,WSW,247,5.0,7.0,71,0.00,,,0.00,Rainwise IP-100,2013-06-16 18:52:00,
2013-06-16 14:57:00,68.6,59.0,29.14,South,180,0.0,6.0,72,0.00,,,0.00,Rainwise IP-100,2013-06-16 18:57:00,
2013-06-16 15:02:00,68.4,59.0,29.14,ENE,67,5.0,7.0,72,0.00,,,0.00,Rainwise IP-100,2013-06-16 19:02:00,
2013-06-16 15:08:00,67.9,59.0,29.15,South,180,4.0,7.0,72,0.00,,,0.00,Rainwise IP-100,2013-06-16 19:08:00,
2013-06-16 15:13:00,67.8,59.5,29.14,SE,135,1.0,8.0,74,0.00,,,0.00,Rainwise IP-100,2013-06-16 19:13:00,
2013-06-16 15:18:00,67.7,59.0,29.14,NNE,22,6.0,7.0,73,0.00,,,0.00,Rainwise IP-100,2013-06-16 19:18:00,
2013-06-16 15:23:00,67.2,59.0,29.13,SSW,202,2.0,10.0,74,0.00,,,0.00,Rainwise IP-100,2013-06-16 19:23:00,
2013-06-16 15:28:00,66.7,59.0,29.13,West,270,4.0,6.0,75,0.00,,,0.00,Rainwise IP-100,2013-06-16 19:28:00,
2013-06-16 15:33:00,66.3,59.5,29.13,East,90,4.0,6.0,79,0.00,,,0.00,Rainwise IP-100,2013-06-16 19:33:00,
2013-06-16 15:38:00,65.9,59.0,29.13,ESE,112,2.0,7.0,78,0.00,,,0.00,Rainwise IP-100,2013-06-16 19:38:00,
2013-06-16 15:43:00,65.7,59.0,29.13,ESE,112,2.0,6.0,79,0.00,,,0.00,Rainwise IP-100,2013-06-16 19:43:00,
2013-06-16 15:49:00,65.5,59.5,29.13,West,270,0.0,7.0,81,0.00,,,0.00,Rainwise IP-100,2013-06-16 19:49:00,
2013-06-16 15:54:00,65.1,59.0,29.13,South,180,0.0,6.0,81,0.00,,,0.00,Rainwise IP-100,2013-06-16 19:54:00,
2013-06-16 15:59:00,64.8,59.0,29.13,NW,315,2.0,5.0,81,0.00,,,0.00,Rainwise IP-100,2013-06-16 19:59:00,
2013-06-16 16:04:00,64.5,60.0,29.12,WSW,247,2.0,4.0,85,0.00,,,0.00,Rainwise IP-100,2013-06-16 20:04:00,
2013-06-16 16:09:00,64.2,59.0,29.13,SE,135,0.0,4.0,83,0.00,,,0.00,Rainwise IP-100,2013-06-16 20:09:00,
2013-06-16 16:14:00,64.1,59.0,29.12,SE,135,0.0,3.0,84,0.00,,,0.00,Rainwise IP-100,2013-06-16 20:14:00,
2013-06-16 16:19:00,64.1,60.0,29.12,NNW,337,0.0,4.0,86,0.00,,,0.00,Rainwise IP-100,2013-06-16 20:19:00,
2013-06-16 16:25:00,64.3,59.5,29.12,SSE,157,0.0,4.0,84,0.00,,,0.00,Rainwise IP-100,2013-06-16 20:25:00,
2013-06-16 16:30:00,64.3,59.5,29.12,WSW,247,0.0,4.0,84,0.00,,,0.00,Rainwise IP-100,2013-06-16 20:30:00,
2013-06-16 16:35:00,64.3,60.0,29.12,ESE,112,2.0,6.0,86,0.00,,,0.00,Rainwise IP-100,2013-06-16 20:35:00,
2013-06-16 16:40:00,64.3,60.0,29.11,East,90,0.0,4.0,85,0.00,,,0.00,Rainwise IP-100,2013-06-16 20:40:00,
2013-06-16 16:45:00,64.1,60.0,29.11,East,90,2.0,0.0,86,0.00,,,0.00,Rainwise IP-100,2013-06-16 20:45:00,
2013-06-16 16:50:00,64.0,60.0,29.11,East,90,0.0,2.0,86,0.00,,,0.00,Rainwise IP-100,2013-06-16 20:50:00,
2013-06-16 16:55:00,64.0,59.5,29.11,East,90,0.0,0.0,85,0.00,,,0.00,Rainwise IP-100,2013-06-16 20:55:00,
2013-06-16 17:00:00,64.1,59.5,29.10,East,90,0.0,1.0,85,0.00,,,0.00,Rainwise IP-100,2013-06-16 21:00:00,
2013-06-16 17:06:00,64.1,60.0,29.10,East,90,0.0,0.0,86,0.00,,,0.00,Rainwise IP-100,2013-06-16 21:06:00,
2013-06-16 17:11:00,64.3,60.0,29.10,East,90,0.0,0.0,86,0.00,,,0.00,Rainwise IP-100,2013-06-16 21:11:00,
2013-06-16 17:16:00,64.4,60.0,29.10,East,90,0.0,2.0,86,0.00,,,0.00,Rainwise IP-100,2013-06-16 21:16:00,
2013-06-16 17:21:00,64.6,60.0,29.10,East,90,0.0,0.0,86,0.00,,,0.00,Rainwise IP-100,2013-06-16 21:21:00,
2013-06-16 17:26:00,64.7,60.0,29.10,East,90,0.0,0.0,86,0.00,,,0.00,Rainwise IP-100,2013-06-16 21:26:00,
2013-06-16 17:31:00,64.8,60.5,29.10,South,180,0.0,0.0,86,0.00,,,0.00,Rainwise IP-100,2013-06-16 21:31:00,
2013-06-16 17:36:00,64.8,60.5,29.10,ESE,112,0.0,3.0,86,0.00,,,0.00,Rainwise IP-100,2013-06-16 21:36:00,
2013-06-16 17:42:00,64.6,60.0,29.10,WSW,247,0.0,5.0,86,0.00,,,0.00,Rainwise IP-100,2013-06-16 21:42:00,
2013-06-16 17:47:00,64.7,60.0,29.10,SE,135,0.0,6.0,85,0.00,,,0.00,Rainwise IP-100,2013-06-16 21:47:00,
2013-06-16 17:52:00,64.9,60.5,29.10,West,270,4.0,4.0,85,0.00,,,0.00,Rainwise IP-100,2013-06-16 21:52:00,
2013-06-16 17:57:00,65.2,60.5,29.09,WSW,247,1.0,5.0,85,0.00,,,0.00,Rainwise IP-100,2013-06-16 21:57:00,
2013-06-16 18:02:00,65.4,60.5,29.09,SW,225,1.0,2.0,84,0.00,,,0.00,Rainwise IP-100,2013-06-16 22:02:00,
2013-06-16 18:05:00,65.5,60.0,29.09,SE,135,4.0,4.0,83,0.00,,,0.00,Rainwise IP-100,2013-06-16 22:05:00,
2013-06-16 18:10:00,65.6,60.0,29.09,WSW,247,0.0,6.0,83,0.00,,,0.00,Rainwise IP-100,2013-06-16 22:10:00,
2013-06-16 18:15:00,65.7,60.0,29.09,WSW,247,2.0,3.0,83,0.00,,,0.00,Rainwise IP-100,2013-06-16 22:15:00,
2013-06-16 18:17:00,65.7,60.0,29.09,WSW,247,0.0,3.0,83,0.00,,,0.00,Rainwise IP-100,2013-06-16 22:17:00,
2013-06-16 18:22:00,65.8,60.5,29.09,SE,135,0.0,2.0,83,0.00,,,0.00,Rainwise IP-100,2013-06-16 22:22:00,
2013-06-16 18:27:00,66.1,60.5,29.09,SE,135,0.0,0.0,83,0.00,,,0.00,Rainwise IP-100,2013-06-16 22:27:00,
2013-06-16 18:32:00,65.9,60.5,29.09,SE,135,2.0,2.0,83,0.00,,,0.00,Rainwise IP-100,2013-06-16 22:32:00,
2013-06-16 18:37:00,65.7,60.5,29.09,SE,135,0.0,2.0,84,0.00,,,0.00,Rainwise IP-100,2013-06-16 22:37:00,
2013-06-16 18:42:00,65.5,61.0,29.09,WSW,247,4.0,4.0,85,0.00,,,0.00,Rainwise IP-100,2013-06-16 22:42:00,
2013-06-16 18:47:00,65.1,60.5,29.09,WSW,247,5.0,5.0,86,0.00,,,0.00,Rainwise IP-100,2013-06-16 22:47:00,
2013-06-16 18:52:00,65.1,60.5,29.09,SW,225,6.0,6.0,86,0.00,,,0.00,Rainwise IP-100,2013-06-16 22:52:00,
2013-06-16 18:58:00,65.0,60.5,29.09,SW,225,5.0,6.0,85,0.00,,,0.00,Rainwise IP-100,2013-06-16 22:58:00,
2013-06-16 19:03:00,65.3,61.0,29.09,WSW,247,4.0,6.0,85,0.00,,,0.00,Rainwise IP-100,2013-06-16 23:03:00,
2013-06-16 19:08:00,65.3,61.0,29.09,SW,225,2.0,6.0,85,0.00,,,0.00,Rainwise IP-100,2013-06-16 23:08:00,
2013-06-16 19:13:00,65.4,60.5,29.09,WSW,247,3.0,7.0,84,0.00,,,0.00,Rainwise IP-100,2013-06-16 23:13:00,
2013-06-16 19:18:00,65.6,60.0,29.09,SW,225,2.0,8.0,83,0.00,,,0.00,Rainwise IP-100,2013-06-16 23:18:00,
2013-06-16 19:23:00,65.7,60.0,29.09,SW,225,2.0,7.0,83,0.00,,,0.00,Rainwise IP-100,2013-06-16 23:23:00,
2013-06-16 19:28:00,65.8,60.0,29.10,WSW,247,1.0,5.0,82,0.00,,,0.00,Rainwise IP-100,2013-06-16 23:28:00,
2013-06-16 19:34:00,65.9,60.0,29.10,West,270,5.0,10.0,82,0.00,,,0.00,Rainwise IP-100,2013-06-16 23:34:00,
2013-06-16 19:39:00,65.9,60.0,29.10,SE,135,1.0,7.0,82,0.00,,,0.00,Rainwise IP-100,2013-06-16 23:39:00,
2013-06-16 19:44:00,65.9,60.0,29.11,ESE,112,3.0,9.0,82,0.00,,,0.00,Rainwise IP-100,2013-06-16 23:44:00,
2013-06-16 19:49:00,65.9,60.0,29.10,West,270,0.0,5.0,81,0.00,,,0.00,Rainwise IP-100,2013-06-16 23:49:00,
2013-06-16 19:54:00,65.8,60.0,29.11,SE,135,0.0,9.0,81,0.00,,,0.00,Rainwise IP-100,2013-06-16 23:54:00,
2013-06-16 19:59:00,65.8,60.5,29.11,SSE,157,2.0,5.0,83,0.00,,,0.00,Rainwise IP-100,2013-06-16 23:59:00,
2013-06-16 20:04:00,65.9,60.0,29.11,ENE,67,4.0,4.0,82,0.00,,,0.00,Rainwise IP-100,2013-06-17 00:04:00,
2013-06-16 20:09:00,65.9,60.5,29.11,East,90,2.0,5.0,83,0.00,,,0.00,Rainwise IP-100,2013-06-17 00:09:00,
2013-06-16 20:15:00,65.9,60.0,29.11,SE,135,0.0,7.0,81,0.00,,,0.00,Rainwise IP-100,2013-06-17 00:15:00,
2013-06-16 20:20:00,65.9,60.0,29.12,SE,135,0.0,0.0,82,0.00,,,0.00,Rainwise IP-100,2013-06-17 00:20:00,
2013-06-16 20:25:00,65.5,61.0,29.11,WSW,247,7.0,8.0,85,0.00,,,0.00,Rainwise IP-100,2013-06-17 00:25:00,
2013-06-16 20:30:00,65.3,61.0,29.11,WSW,247,5.0,7.0,85,0.00,,,0.00,Rainwise IP-100,2013-06-17 00:30:00,
2013-06-16 20:35:00,65.5,60.5,29.11,SW,225,8.0,10.0,84,0.00,,,0.00,Rainwise IP-100,2013-06-17 00:35:00,
2013-06-16 20:40:00,65.5,60.5,29.11,SW,225,6.0,9.0,84,0.00,,,0.00,Rainwise IP-100,2013-06-17 00:40:00,
2013-06-16 20:45:00,65.6,60.5,29.11,SW,225,6.0,9.0,84,0.00,,,0.00,Rainwise IP-100,2013-06-17 00:45:00,
2013-06-16 20:51:00,65.7,60.0,29.12,SW,225,7.0,9.0,83,0.00,,,0.00,Rainwise IP-100,2013-06-17 00:51:00,
2013-06-16 20:56:00,65.6,60.0,29.11,WSW,247,6.0,9.0,83,0.00,,,0.00,Rainwise IP-100,2013-06-17 00:56:00,
2013-06-16 21:01:00,65.5,60.5,29.12,WSW,247,1.0,7.0,84,0.00,,,0.00,Rainwise IP-100,2013-06-17 01:01:00,
2013-06-16 21:06:00,65.6,60.0,29.12,WSW,247,2.0,7.0,83,0.00,,,0.00,Rainwise IP-100,2013-06-17 01:06:00,
2013-06-16 21:11:00,65.6,60.0,29.13,SE,135,0.0,5.0,83,0.00,,,0.00,Rainwise IP-100,2013-06-17 01:11:00,
2013-06-16 21:16:00,65.3,60.0,29.13,SE,135,0.0,3.0,83,0.00,,,0.00,Rainwise IP-100,2013-06-17 01:16:00,
2013-06-16 21:21:00,64.5,59.5,29.13,SE,135,0.0,3.0,83,0.00,,,0.00,Rainwise IP-100,2013-06-17 01:21:00,
2013-06-16 21:26:00,64.2,60.0,29.13,West,270,6.0,9.0,86,0.00,,,0.00,Rainwise IP-100,2013-06-17 01:26:00,
2013-06-16 21:32:00,64.3,60.0,29.13,SW,225,0.0,7.0,85,0.00,,,0.00,Rainwise IP-100,2013-06-17 01:32:00,
2013-06-16 21:37:00,64.0,59.5,29.13,WSW,247,0.0,5.0,85,0.00,,,0.00,Rainwise IP-100,2013-06-17 01:37:00,
2013-06-16 21:42:00,63.5,59.0,29.14,NE,45,2.0,3.0,85,0.00,,,0.00,Rainwise IP-100,2013-06-17 01:42:00,
2013-06-16 21:47:00,62.9,58.0,29.14,NE,45,0.0,2.0,84,0.00,,,0.00,Rainwise IP-100,2013-06-17 01:47:00,
2013-06-16 21:52:00,62.0,57.5,29.14,NE,45,0.0,0.0,86,0.00,,,0.00,Rainwise IP-100,2013-06-17 01:52:00,
2013-06-16 21:57:00,60.9,57.0,29.15,NE,45,0.0,0.0,87,0.00,,,0.00,Rainwise IP-100,2013-06-17 01:57:00,
2013-06-16 22:02:00,59.9,56.5,29.14,NE,45,0.0,0.0,89,0.00,,,0.00,Rainwise IP-100,2013-06-17 02:02:00,
2013-06-16 22:07:00,58.9,56.0,29.15,NE,45,0.0,0.0,90,0.00,,,0.00,Rainwise IP-100,2013-06-17 02:07:00,
2013-06-16 22:13:00,58.2,55.0,29.14,NE,45,0.0,0.0,89,0.00,,,0.00,Rainwise IP-100,2013-06-17 02:13:00,
2013-06-16 22:18:00,57.9,56.0,29.14,NE,45,0.0,0.0,91,0.00,,,0.00,Rainwise IP-100,2013-06-17 02:18:00,
2013-06-16 22:23:00,57.6,56.0,29.14,NE,45,0.0,0.0,93,0.00,,,0.00,Rainwise IP-100,2013-06-17 02:23:00,
2013-06-16 22:28:00,57.3,56.0,29.14,NE,45,0.0,0.0,93,0.00,,,0.00,Rainwise IP-100,2013-06-17 02:28:00,
2013-06-16 22:33:00,56.9,55.0,29.14,NE,45,0.0,0.0,93,0.00,,,0.00,Rainwise IP-100,2013-06-17 02:33:00,
2013-06-16 22:38:00,56.5,54.5,29.15,NE,45,0.0,0.0,93,0.00,,,0.00,Rainwise IP-100,2013-06-17 02:38:00,
2013-06-16 22:43:00,56.1,54.0,29.14,NE,45,0.0,0.0,94,0.00,,,0.00,Rainwise IP-100,2013-06-17 02:43:00,
2013-06-16 22:49:00,55.8,54.0,29.15,NE,45,0.0,0.0,94,0.00,,,0.00,Rainwise IP-100,2013-06-17 02:49:00,
2013-06-16 22:54:00,55.6,54.0,29.15,NE,45,0.0,0.0,94,0.00,,,0.00,Rainwise IP-100,2013-06-17 02:54:00,
2013-06-16 22:59:00,55.6,54.5,29.15,WSW,247,0.0,4.0,96,0.00,,,0.00,Rainwise IP-100,2013-06-17 02:59:00,
2013-06-16 23:04:00,56.0,55.0,29.15,SW,225,0.0,6.0,97,0.00,,,0.00,Rainwise IP-100,2013-06-17 03:04:00,
2013-06-16 23:09:00,56.4,55.0,29.15,WSW,247,0.0,3.0,96,0.00,,,0.00,Rainwise IP-100,2013-06-17 03:09:00,
2013-06-16 23:14:00,56.1,54.5,29.15,NW,315,0.0,5.0,96,0.00,,,0.00,Rainwise IP-100,2013-06-17 03:14:00,
2013-06-16 23:19:00,55.7,54.5,29.15,NW,315,0.0,3.0,96,0.00,,,0.00,Rainwise IP-100,2013-06-17 03:19:00,
2013-06-16 23:24:00,55.1,54.0,29.15,NW,315,0.0,3.0,96,0.00,,,0.00,Rainwise IP-100,2013-06-17 03:24:00,
2013-06-16 23:30:00,55.1,54.0,29.15,NW,315,0.0,3.0,96,0.00,,,0.00,Rainwise IP-100,2013-06-17 03:30:00,
2013-06-16 23:35:00,54.9,54.0,29.15,NW,315,0.0,5.0,96,0.00,,,0.00,Rainwise IP-100,2013-06-17 03:35:00,
2013-06-16 23:40:00,54.7,53.5,29.15,NW,315,0.0,2.0,96,0.00,,,0.00,Rainwise IP-100,2013-06-17 03:40:00,
2013-06-16 23:45:00,54.3,54.0,29.15,NW,315,1.0,1.0,97,0.00,,,0.00,Rainwise IP-100,2013-06-17 03:45:00,
2013-06-16 23:50:00,54.3,54.0,29.15,NW,315,3.0,3.0,97,0.00,,,0.00,Rainwise IP-100,2013-06-17 03:50:00,
2013-06-16 23:55:00,54.7,54.0,29.15,NE,45,0.0,4.0,98,0.00,,,0.00,Rainwise IP-100,2013-06-17 03:55:00,